createdAt,value
2018-09-06T00:02:11.042Z,114.43
2018-09-06T00:04:40.182Z,110.07
2018-09-06T00:07:09.402Z,109.73
2018-09-06T00:09:38.508Z,111.07
2018-09-06T00:12:07.652Z,104.13
2018-09-06T00:14:37.060Z,106.40
2018-09-06T00:17:06.211Z,107.30
2018-09-06T00:19:35.406Z,118.30
2018-09-06T00:22:05.565Z,107.47
2018-09-06T00:24:34.688Z,105.80
2018-09-06T00:27:03.854Z,116.97
2018-09-06T00:29:32.984Z,108.07
2018-09-06T00:32:02.138Z,111.20
2018-09-06T00:34:31.305Z,116.50
2018-09-06T00:37:00.450Z,115.20
2018-09-06T00:39:29.598Z,105.53
2018-09-06T00:41:58.827Z,110.63
2018-09-06T00:44:28.018Z,103.20
2018-09-06T00:46:57.178Z,100.93
2018-09-06T00:49:26.277Z,102.27
2018-09-06T00:51:55.426Z,103.90
2018-09-06T00:54:24.585Z,106.97
2018-09-06T00:56:53.698Z,114.60
2018-09-06T00:59:24.675Z,95.40
2018-09-06T01:01:54.799Z,102.40
2018-09-06T01:04:23.915Z,96.33
2018-09-06T01:06:53.395Z,100.83
2018-09-06T01:09:22.733Z,102.10
2018-09-06T01:11:51.844Z,95.63
2018-09-06T01:14:20.965Z,104.50
2018-09-06T01:16:50.106Z,103.30
2018-09-06T01:19:19.219Z,108.77
2018-09-06T01:21:48.346Z,105.80
2018-09-06T01:24:17.453Z,92.57
2018-09-06T01:26:46.573Z,99.67
2018-09-06T01:29:15.829Z,104.90
2018-09-06T01:31:45.021Z,101.40
2018-09-06T01:34:14.178Z,104.03
2018-09-06T01:36:47.013Z,94.03
2018-09-06T01:39:16.631Z,99.77
2018-09-06T01:41:45.747Z,103.17
2018-09-06T01:44:14.857Z,108.77
2018-09-06T01:46:43.983Z,93.80
2018-09-06T01:49:13.157Z,83.97
2018-09-06T01:51:42.281Z,86.97
2018-09-06T01:54:11.542Z,89.20
2018-09-06T01:56:40.765Z,88.03
2018-09-06T01:59:16.645Z,84.73
2018-09-06T02:01:45.798Z,86.67
2018-09-06T02:04:14.917Z,83.43
2018-09-06T02:06:44.194Z,85.20
2018-09-06T02:09:13.616Z,79.57
2018-09-06T02:11:42.744Z,83.30
2018-09-06T02:14:11.936Z,83.87
2018-09-06T02:16:41.061Z,81.73
2018-09-06T02:19:10.204Z,78.90
2018-09-06T02:21:39.487Z,71.33
2018-09-06T02:24:08.591Z,73.80
2018-09-06T02:26:37.806Z,73.93
2018-09-06T02:29:06.915Z,72.37
2018-09-06T02:31:36.044Z,84.63
2018-09-06T02:34:05.162Z,73.70
2018-09-06T02:36:34.279Z,74.00
2018-09-06T02:39:04.610Z,70.40
2018-09-06T02:41:33.826Z,70.10
2018-09-06T02:44:02.973Z,70.53
2018-09-06T02:46:32.105Z,72.37
2018-09-06T02:49:01.297Z,69.53
2018-09-06T02:51:30.512Z,73.90
2018-09-06T02:53:59.737Z,76.53
2018-09-06T02:56:28.889Z,82.13
2018-09-06T02:58:58.018Z,68.87
2018-09-06T03:01:27.128Z,65.93
2018-09-06T03:03:56.307Z,80.77
2018-09-06T03:06:25.480Z,74.20
2018-09-06T03:08:54.582Z,77.23
2018-09-06T03:11:25.898Z,74.43
2018-09-06T03:13:55.033Z,65.80
2018-09-06T03:16:24.165Z,70.60
2018-09-06T03:18:53.408Z,73.80
2018-09-06T03:21:22.636Z,68.70
2018-09-06T03:23:51.808Z,73.17
2018-09-06T03:26:21.212Z,67.30
2018-09-06T03:28:51.387Z,68.80
2018-09-06T03:31:20.641Z,75.57
2018-09-06T03:33:50.204Z,61.30
2018-09-06T03:36:19.328Z,66.37
2018-09-06T03:38:48.448Z,65.20
2018-09-06T03:41:17.592Z,71.27
2018-09-06T03:43:46.721Z,64.87
2018-09-06T03:46:15.920Z,66.80
2018-09-06T03:48:45.022Z,60.67
2018-09-06T03:51:14.133Z,60.67
2018-09-06T03:53:43.295Z,61.60
2018-09-06T03:56:12.699Z,61.60
2018-09-06T03:58:41.911Z,63.60
2018-09-06T04:01:11.031Z,63.33
2018-09-06T04:03:40.233Z,68.70
2018-09-06T04:06:09.389Z,59.03
2018-09-06T04:08:38.496Z,68.20
2018-09-06T04:11:07.692Z,55.90
2018-09-06T04:13:36.868Z,59.97
2018-09-06T04:16:06.198Z,63.27
2018-09-06T04:18:35.490Z,61.07
2018-09-06T04:21:04.538Z,59.40
2018-09-06T04:23:34.066Z,59.27
2018-09-06T04:26:03.204Z,60.20
2018-09-06T04:28:32.382Z,57.03
2018-09-06T04:31:01.576Z,54.53
2018-09-06T04:33:30.788Z,61.53
2018-09-06T04:35:59.901Z,53.47
2018-09-06T04:38:29.654Z,59.87
2018-09-06T04:40:58.780Z,59.13
2018-09-06T04:43:27.892Z,60.07
2018-09-06T04:45:57.075Z,69.33
2018-09-06T04:48:26.188Z,57.63
2018-09-06T04:50:55.327Z,62.30
2018-09-06T04:53:24.465Z,64.73
2018-09-06T04:55:53.653Z,56.97
2018-09-06T04:58:22.906Z,54.40
2018-09-06T05:00:52.134Z,53.07
2018-09-06T05:03:21.247Z,56.43
2018-09-06T05:05:50.485Z,55.40
2018-09-06T05:08:19.659Z,56.27
2018-09-06T05:10:48.900Z,57.67
2018-09-06T05:13:18.041Z,62.03
2018-09-06T05:15:47.237Z,56.37
2018-09-06T05:18:16.409Z,58.57
2018-09-06T05:20:45.684Z,50.33
2018-09-06T05:23:14.825Z,55.80
2018-09-06T05:25:44.022Z,54.70
2018-09-06T05:28:13.153Z,57.53
2018-09-06T05:30:42.398Z,57.57
2018-09-06T05:33:11.525Z,56.70
2018-09-06T05:35:40.722Z,56.20
2018-09-06T05:38:09.936Z,61.30
2018-09-06T05:40:39.053Z,56.63
2018-09-06T05:43:08.280Z,53.13
2018-09-06T05:45:37.468Z,52.40
2018-09-06T05:48:06.678Z,50.83
2018-09-06T05:57:23.412Z,64.80
2018-09-06T05:59:52.550Z,54.30
2018-09-06T06:02:21.744Z,51.90
2018-09-06T06:04:50.950Z,63.73
2018-09-06T06:07:20.320Z,63.93
2018-09-06T06:09:49.424Z,65.73
2018-09-06T06:12:18.624Z,67.77
2018-09-06T06:14:47.750Z,75.40
2018-09-06T06:17:16.928Z,76.40
2018-09-06T06:19:46.056Z,73.37
2018-09-06T06:22:15.227Z,70.10
2018-09-06T06:24:44.344Z,61.27
2018-09-06T06:27:13.552Z,67.07
2018-09-06T06:29:42.708Z,66.03
2018-09-06T06:32:11.978Z,61.27
2018-09-06T06:34:41.084Z,66.70
2018-09-06T06:37:10.209Z,60.03
2018-09-06T06:39:39.317Z,53.67
2018-09-06T06:42:08.517Z,54.20
2018-09-06T06:44:37.622Z,61.97
2018-09-06T06:47:06.749Z,59.73
2018-09-06T06:49:35.885Z,58.63
2018-09-06T06:52:05.007Z,53.67
2018-09-06T06:54:34.160Z,50.57
2018-09-06T06:57:03.352Z,48.87
2018-09-06T06:59:32.426Z,56.33
2018-09-06T07:02:01.524Z,54.83
2018-09-06T07:04:30.761Z,50.80
2018-09-06T07:06:59.986Z,50.30
2018-09-06T07:09:29.076Z,50.63
2018-09-06T07:11:58.296Z,49.40
2018-09-06T07:14:27.448Z,55.33
2018-09-06T07:16:56.618Z,51.60
2018-09-06T07:19:25.732Z,55.13
2018-09-06T07:21:54.947Z,53.90
2018-09-06T07:24:24.148Z,48.00
2018-09-06T07:26:53.313Z,47.00
2018-09-06T07:29:22.550Z,44.27
2018-09-06T07:31:51.644Z,43.33
2018-09-06T07:34:20.843Z,44.97
2018-09-06T07:36:49.975Z,43.83
2018-09-06T07:39:19.197Z,43.60
2018-09-06T07:41:48.309Z,49.00
2018-09-06T07:44:17.477Z,40.83
2018-09-06T07:46:46.656Z,157.57
2018-09-06T07:49:15.753Z,393.40
2018-09-06T07:51:44.999Z,64.07
2018-09-06T07:54:14.237Z,35.93
2018-09-06T07:56:43.378Z,39.77
2018-09-06T07:59:12.689Z,34.70
2018-09-06T08:01:42.015Z,31.50
2018-09-06T08:04:11.166Z,38.30
2018-09-06T08:06:40.493Z,32.53
2018-09-06T08:09:11.108Z,39.70
2018-09-06T08:11:41.007Z,31.80
2018-09-06T08:14:10.129Z,35.57
2018-09-06T08:16:39.375Z,32.93
2018-09-06T08:19:08.463Z,34.53
2018-09-06T08:21:37.661Z,39.03
2018-09-06T08:24:06.887Z,26.90
2018-09-06T08:26:36.040Z,36.33
2018-09-06T08:29:05.301Z,32.03
2018-09-06T08:31:34.651Z,26.10
2018-09-06T08:34:03.767Z,36.23
2018-09-06T08:36:32.932Z,28.97
2018-09-06T08:39:02.112Z,32.63
2018-09-06T08:41:31.242Z,26.63
2018-09-06T08:44:00.486Z,32.70
2018-09-06T08:46:29.580Z,30.43
2018-09-06T08:48:58.728Z,33.10
2018-09-06T08:51:27.953Z,31.47
2018-09-06T08:53:57.109Z,35.67
2018-09-06T08:56:26.308Z,30.13
2018-09-06T08:58:55.414Z,47.13
2018-09-06T09:01:29.785Z,32.00
2018-09-06T09:03:58.900Z,23.80
2018-09-06T09:06:28.104Z,28.40
2018-09-06T09:08:57.226Z,25.47
2018-09-06T09:11:26.432Z,27.47
2018-09-06T09:13:55.607Z,28.37
2018-09-06T09:16:24.741Z,21.83
2018-09-06T09:18:53.905Z,23.03
2018-09-06T09:21:23.173Z,27.20
2018-09-06T09:23:52.463Z,32.37
2018-09-06T09:26:21.622Z,27.80
2018-09-06T09:28:50.728Z,27.97
2018-09-06T09:31:19.884Z,28.97
2018-09-06T09:33:49.087Z,23.10
2018-09-06T09:36:18.165Z,32.43
2018-09-06T09:38:47.418Z,31.43
2018-09-06T09:41:16.560Z,21.80
2018-09-06T09:43:45.703Z,29.17
2018-09-06T09:48:43.170Z,25.13
2018-09-06T09:51:12.248Z,23.63
2018-09-06T09:53:41.448Z,24.57
2018-09-06T09:56:10.540Z,20.83
2018-09-06T09:58:39.718Z,23.93
2018-09-06T10:01:08.924Z,21.93
2018-09-06T10:03:43.453Z,23.13
2018-09-06T10:06:21.804Z,29.00
2018-09-06T10:08:56.256Z,20.23
2018-09-06T10:11:25.698Z,21.37
2018-09-06T10:13:54.986Z,22.03
2018-09-06T10:16:24.116Z,26.20
2018-09-06T10:18:53.216Z,24.10
2018-09-06T10:21:22.373Z,24.93
2018-09-06T10:23:51.585Z,23.73
2018-09-06T10:26:20.786Z,21.90
2018-09-06T10:28:49.961Z,23.73
2018-09-06T10:31:19.331Z,24.40
2018-09-06T10:33:48.563Z,20.23
2018-09-06T10:36:17.929Z,19.10
2018-09-06T10:38:47.052Z,18.77
2018-09-06T10:41:16.293Z,24.33
2018-09-06T10:43:45.432Z,23.43
2018-09-06T10:46:14.553Z,21.77
2018-09-06T10:48:43.865Z,17.73
2018-09-06T10:51:13.782Z,20.97
2018-09-06T10:53:43.096Z,18.73
2018-09-06T10:56:12.931Z,23.63
2018-09-06T10:58:42.307Z,25.07
2018-09-06T11:01:16.870Z,21.47
2018-09-06T11:03:46.111Z,18.67
2018-09-06T11:06:15.220Z,21.47
2018-09-06T11:08:47.268Z,19.93
2018-09-06T11:11:16.449Z,19.70
2018-09-06T11:13:45.581Z,17.57
2018-09-06T11:16:14.884Z,20.60
2018-09-06T11:18:44.032Z,17.80
2018-09-06T11:21:13.322Z,19.63
2018-09-06T11:23:42.421Z,17.70
2018-09-06T11:26:11.542Z,19.97
2018-09-06T11:28:40.670Z,17.87
2018-09-06T11:31:09.812Z,21.20
2018-09-06T11:33:39.046Z,21.93
2018-09-06T11:36:08.250Z,20.07
2018-09-06T11:38:37.495Z,17.50
2018-09-06T11:41:06.744Z,16.83
2018-09-06T11:43:35.996Z,16.50
2018-09-06T11:46:05.118Z,22.47
2018-09-06T11:48:33.271Z,15.43
2018-09-06T11:51:01.234Z,14.97
2018-09-06T11:53:29.165Z,22.20
2018-09-06T11:55:57.096Z,15.37
2018-09-06T11:58:25.028Z,15.80
2018-09-06T12:00:52.942Z,15.57
2018-09-06T12:03:20.979Z,14.23
2018-09-06T12:05:48.880Z,14.73
2018-09-06T12:08:16.818Z,18.97
2018-09-06T12:10:45.066Z,15.33
2018-09-06T12:13:13.020Z,14.53
2018-09-06T12:15:40.959Z,14.00
2018-09-06T12:18:08.920Z,14.10
2018-09-06T12:20:36.944Z,15.57
2018-09-06T12:23:04.867Z,12.60
2018-09-06T12:25:33.060Z,13.97
2018-09-06T12:28:00.968Z,16.00
2018-09-06T12:30:28.927Z,15.50
2018-09-06T12:32:56.862Z,14.17
2018-09-06T12:35:24.773Z,13.67
2018-09-06T12:37:52.649Z,14.85
2018-09-06T12:40:20.607Z,13.88
2018-09-06T12:42:48.492Z,12.10
2018-09-06T12:45:16.402Z,12.75
2018-09-06T12:47:44.295Z,12.40
2018-09-06T12:50:12.275Z,11.93
2018-09-06T12:52:40.181Z,11.45
2018-09-06T12:55:08.072Z,13.30
2018-09-06T12:57:35.972Z,11.63
2018-09-06T13:00:04.010Z,10.60
2018-09-06T13:02:32.085Z,11.35
2018-09-06T13:05:00.295Z,11.53
2018-09-06T13:07:28.163Z,10.53
2018-09-06T13:09:56.084Z,10.75
2018-09-06T13:12:24.079Z,12.18
2018-09-06T13:14:52.027Z,10.55
2018-09-06T13:17:19.910Z,10.65
2018-09-06T13:19:48.412Z,11.38
2018-09-06T13:22:16.472Z,10.72
2018-09-06T13:24:44.356Z,11.20
2018-09-06T13:27:12.325Z,10.38
2018-09-06T13:29:40.196Z,10.88
2018-09-06T13:32:08.071Z,9.85
2018-09-06T13:34:36.015Z,10.08
2018-09-06T13:37:03.914Z,11.18
2018-09-06T13:39:31.817Z,13.93
2018-09-06T13:41:59.782Z,10.58
2018-09-06T13:44:27.724Z,12.93
2018-09-06T13:46:55.612Z,10.93
2018-09-06T13:49:23.507Z,9.60
2018-09-06T13:51:51.495Z,10.15
2018-09-06T13:54:19.399Z,10.65
2018-09-06T13:56:47.310Z,11.05
2018-09-06T13:59:15.201Z,10.38
2018-09-06T14:01:43.172Z,11.90
2018-09-06T14:04:11.128Z,10.30
2018-09-06T14:06:39.002Z,10.75
2018-09-06T14:09:06.910Z,11.00
2018-09-06T14:11:35.111Z,11.05
2018-09-06T14:14:03.177Z,10.90
2018-09-06T14:16:31.149Z,11.68
2018-09-06T14:18:59.127Z,11.05
2018-09-06T14:21:27.000Z,13.50
2018-09-06T14:23:55.056Z,10.85
2018-09-06T14:26:22.971Z,11.22
2018-09-06T14:28:50.923Z,10.68
2018-09-06T14:31:18.998Z,11.18
2018-09-06T14:33:46.878Z,10.68
2018-09-06T14:36:14.878Z,11.08
2018-09-06T14:38:42.878Z,11.03
2018-09-06T14:41:10.764Z,14.00
2018-09-06T14:43:38.667Z,10.50
2018-09-06T14:46:06.710Z,10.45
2018-09-06T14:48:34.655Z,11.50
2018-09-06T14:51:02.645Z,10.60
2018-09-06T14:53:30.528Z,11.53
2018-09-06T14:55:58.469Z,10.13
2018-09-06T14:58:26.388Z,11.78
2018-09-06T15:00:54.306Z,11.10
2018-09-06T15:03:22.204Z,12.55
2018-09-06T15:05:50.130Z,11.93
2018-09-06T15:08:18.088Z,11.57
2018-09-06T15:10:46.064Z,10.70
2018-09-06T15:13:13.963Z,11.70
2018-09-06T15:15:41.887Z,11.08
2018-09-06T15:18:09.850Z,10.58
2018-09-06T15:20:37.824Z,11.78
2018-09-06T15:23:05.827Z,10.75
2018-09-06T15:25:33.731Z,11.00
2018-09-06T15:28:01.826Z,10.70
2018-09-06T15:30:29.709Z,12.00
2018-09-06T15:32:57.703Z,11.25
2018-09-06T15:35:25.587Z,11.00
2018-09-06T15:37:53.543Z,11.35
2018-09-06T15:40:21.480Z,11.93
2018-09-06T15:42:49.373Z,11.22
2018-09-06T15:45:17.276Z,12.03
2018-09-06T15:47:45.176Z,11.45
2018-09-06T15:50:13.074Z,11.00
2018-09-06T15:52:40.960Z,14.28
2018-09-06T15:55:08.887Z,11.40
2018-09-06T15:57:36.881Z,11.28
2018-09-06T16:00:04.767Z,11.70
2018-09-06T16:02:32.716Z,12.98
2018-09-06T16:05:00.694Z,11.15
2018-09-06T16:07:28.572Z,11.60
2018-09-06T16:09:56.476Z,11.83
2018-09-06T16:12:24.469Z,15.00
2018-09-06T16:14:52.275Z,11.00
2018-09-06T16:17:20.157Z,11.80
2018-09-06T16:19:48.043Z,11.48
2018-09-06T16:22:15.938Z,11.90
2018-09-06T16:24:43.923Z,11.33
2018-09-06T16:27:11.892Z,11.87
2018-09-06T16:29:39.920Z,14.53
2018-09-06T16:32:07.903Z,20.70
2018-09-06T16:34:35.791Z,14.55
2018-09-06T16:37:03.770Z,12.30
2018-09-06T16:39:31.659Z,13.07
2018-09-06T16:41:59.566Z,12.50
2018-09-06T16:44:27.542Z,12.37
2018-09-06T16:46:55.538Z,12.93
2018-09-06T16:49:23.505Z,11.50
2018-09-06T16:51:51.415Z,14.40
2018-09-06T16:54:19.360Z,13.80
2018-09-06T16:56:47.291Z,21.23
2018-09-06T16:59:15.323Z,16.70
2018-09-06T17:01:43.307Z,14.47
2018-09-06T17:04:11.424Z,15.93
2018-09-06T17:06:39.462Z,13.27
2018-09-06T17:09:07.756Z,13.40
2018-09-06T17:11:35.804Z,14.73
2018-09-06T17:14:03.736Z,12.20
2018-09-06T17:16:31.664Z,15.60
2018-09-06T17:18:59.559Z,15.17
2018-09-06T17:21:27.475Z,14.80
2018-09-06T17:23:55.627Z,11.63
2018-09-06T17:26:23.859Z,13.23
2018-09-06T17:28:52.011Z,13.07
2018-09-06T17:31:19.928Z,16.53
2018-09-06T17:33:48.376Z,26.37
2018-09-06T17:36:17.017Z,16.87
2018-09-06T17:38:45.156Z,16.50
2018-09-06T17:41:13.303Z,19.63
2018-09-06T17:43:41.343Z,11.73
2018-09-06T17:46:09.595Z,16.10
2018-09-06T17:48:38.034Z,13.80
2018-09-06T17:51:07.740Z,12.10
2018-09-06T17:53:36.227Z,15.93
2018-09-06T17:56:04.536Z,12.47
2018-09-06T17:58:32.981Z,12.93
2018-09-06T18:01:08.451Z,12.90
2018-09-06T18:03:36.935Z,16.93
2018-09-06T18:06:05.246Z,15.10
2018-09-06T18:08:33.600Z,22.07
2018-09-06T18:11:02.204Z,15.13
2018-09-06T18:13:30.702Z,15.57
2018-09-06T18:15:59.671Z,17.27
2018-09-06T18:18:28.305Z,13.23
2018-09-06T18:20:56.932Z,15.27
2018-09-06T18:23:25.417Z,17.50
2018-09-06T18:25:53.889Z,24.53
2018-09-06T18:28:22.107Z,14.40
2018-09-06T18:30:50.550Z,15.40
2018-09-06T18:33:18.949Z,21.77
2018-09-06T18:35:47.468Z,16.53
2018-09-06T18:38:15.950Z,302.23
2018-09-06T18:40:44.264Z,29.40
2018-09-06T18:43:12.806Z,17.80
2018-09-06T18:45:41.642Z,16.10
2018-09-06T18:48:10.075Z,15.50
2018-09-06T18:50:39.481Z,21.23
2018-09-06T18:53:07.890Z,23.40
2018-09-06T18:55:36.438Z,18.13
2018-09-06T18:58:04.817Z,22.50
2018-09-06T19:00:33.136Z,14.00
2018-09-06T19:03:01.576Z,20.03
2018-09-06T19:05:30.051Z,14.47
2018-09-06T19:07:58.668Z,16.43
2018-09-06T19:10:26.988Z,14.23
2018-09-06T19:12:55.399Z,18.67
2018-09-06T19:15:23.917Z,20.83
2018-09-06T19:17:52.457Z,19.60
2018-09-06T19:20:21.144Z,21.70
2018-09-06T19:22:49.564Z,16.67
2018-09-06T19:25:17.928Z,16.27
2018-09-06T19:27:46.590Z,15.00
2018-09-06T19:30:15.273Z,14.53
2018-09-06T19:32:43.688Z,14.30
2018-09-06T19:35:12.133Z,15.50
2018-09-06T19:37:41.203Z,14.43
2018-09-06T19:40:09.612Z,15.50
2018-09-06T19:42:38.296Z,15.87
2018-09-06T19:45:06.787Z,16.00
2018-09-06T19:47:34.955Z,145.63
2018-09-06T19:50:03.434Z,22.57
2018-09-06T19:52:31.855Z,18.33
2018-09-06T19:55:00.306Z,22.97
2018-09-06T19:57:28.534Z,21.97
2018-09-06T19:59:56.904Z,21.70
2018-09-06T20:02:25.132Z,20.83
2018-09-06T20:04:53.559Z,24.17
2018-09-06T20:07:22.097Z,18.17
2018-09-06T20:09:50.209Z,18.90
2018-09-06T20:12:18.731Z,20.63
2018-09-06T20:14:46.941Z,21.20
2018-09-06T20:17:15.021Z,20.67
2018-09-06T20:19:43.387Z,18.80
2018-09-06T20:22:11.771Z,17.77
2018-09-06T20:24:40.053Z,19.43
2018-09-06T20:27:08.251Z,20.67
2018-09-06T20:29:36.674Z,18.30
2018-09-06T20:32:05.060Z,21.13
2018-09-06T20:34:33.445Z,17.67
2018-09-06T20:37:02.006Z,16.03
2018-09-06T20:39:30.546Z,19.83
2018-09-06T20:41:59.134Z,18.10
2018-09-06T20:44:27.672Z,16.60
2018-09-06T20:46:55.870Z,17.60
2018-09-06T20:49:24.310Z,14.50
2018-09-06T20:51:52.690Z,17.97
2018-09-06T20:54:21.474Z,16.00
2018-09-06T20:56:49.609Z,12.20
2018-09-06T20:59:18.136Z,13.33
2018-09-06T21:01:46.279Z,12.27
2018-09-06T21:04:14.615Z,12.40
2018-09-06T21:06:42.736Z,15.13
2018-09-06T21:09:11.069Z,10.73
2018-09-06T21:11:41.543Z,10.93
2018-09-06T21:14:09.831Z,8.50
2018-09-06T21:16:37.872Z,8.53
2018-09-06T21:19:05.816Z,13.60
2018-09-06T21:21:33.723Z,7.77
2018-09-06T21:24:01.709Z,10.57
2018-09-06T21:26:29.775Z,9.83
2018-09-06T21:28:57.706Z,9.67
2018-09-06T21:31:25.616Z,10.80
2018-09-06T21:33:53.522Z,42.90
2018-09-06T21:36:21.510Z,7.23
2018-09-06T21:38:49.409Z,8.50
2018-09-06T21:41:17.391Z,6.73
2018-09-06T21:43:45.271Z,8.13
2018-09-06T21:46:13.207Z,5.00
2018-09-06T21:48:41.189Z,4.77
2018-09-06T21:51:09.111Z,8.70
2018-09-06T21:53:37.241Z,7.93
2018-09-06T21:56:05.167Z,5.93
2018-09-06T21:58:33.118Z,6.87
2018-09-06T22:01:01.071Z,7.80
2018-09-06T22:03:34.371Z,6.50
2018-09-06T22:06:02.351Z,5.70
2018-09-06T22:08:30.463Z,6.63
2018-09-06T22:10:58.395Z,6.77
2018-09-06T22:13:26.295Z,8.00
2018-09-06T22:15:54.347Z,8.70
2018-09-06T22:18:22.342Z,6.60
2018-09-06T22:20:50.239Z,6.80
2018-09-06T22:23:18.134Z,7.20
2018-09-06T22:25:46.144Z,9.63
2018-09-06T22:28:14.029Z,8.90
2018-09-06T22:30:41.947Z,9.97
2018-09-06T22:33:09.861Z,8.97
2018-09-06T22:35:37.779Z,9.33
2018-09-06T22:38:05.705Z,13.07
2018-09-06T22:40:33.611Z,9.70
2018-09-06T22:43:01.518Z,12.00
2018-09-06T22:45:29.384Z,10.70
2018-09-06T22:47:57.324Z,15.70
2018-09-06T22:50:25.324Z,11.43
2018-09-06T22:52:53.211Z,10.57
2018-09-06T22:55:21.135Z,10.37
2018-09-06T22:57:49.127Z,11.10
2018-09-06T23:00:19.621Z,10.33
2018-09-06T23:02:53.152Z,15.57
2018-09-06T23:05:21.279Z,11.90
2018-09-06T23:07:49.348Z,12.80
2018-09-06T23:10:17.465Z,13.30
2018-09-06T23:12:45.401Z,12.23
2018-09-06T23:15:13.431Z,12.33
2018-09-06T23:17:41.382Z,8.40
2018-09-06T23:20:09.285Z,9.60
2018-09-06T23:22:37.908Z,7.07
2018-09-06T23:25:06.773Z,7.37
2018-09-06T23:27:34.699Z,8.43
2018-09-06T23:30:02.622Z,7.87
2018-09-06T23:32:30.619Z,6.97
2018-09-06T23:34:58.585Z,17.33
2018-09-06T23:37:26.607Z,7.50
2018-09-06T23:39:54.507Z,6.30
2018-09-06T23:42:24.826Z,5.77
2018-09-06T23:44:53.791Z,6.80
2018-09-06T23:47:21.784Z,5.30
2018-09-06T23:49:50.039Z,5.10
2018-09-06T23:52:18.429Z,5.70
2018-09-06T23:54:46.435Z,4.30
2018-09-06T23:57:14.325Z,7.43
2018-09-06T23:59:42.259Z,4.27
